Time;durP1;ratioP1;P1;durP2;ratioP2;P2;SDS_P1;SDS_P2;PMS_P1;PMS_P2;Temp;Humidity;BMP_temperature;BMP_pressure;BME280_temperature;BME280_humidity;BME280_pressure;Samples;Min_cycle;Max_cycle;Signal;HPM_P1;HPM_P2
2024/02/14 00:02:10;;;;;;;2.88;1.40;;;12.00;86.50;;;;;;6277608;22;20002;-79
2024/02/14 00:04:35;;;;;;;2.60;1.50;;;12.00;86.30;;;;;;6278051;22;20829;-78
2024/02/14 00:07:01;;;;;;;2.60;1.50;;;12.10;86.50;;;;;;6278678;22;19991;-78
2024/02/14 00:09:26;;;;;;;3.08;1.70;;;12.10;86.70;;;;;;6278383;22;20003;-78
2024/02/14 00:11:52;;;;;;;2.80;1.40;;;12.00;86.00;;;;;;6307315;22;19995;-78
2024/02/14 00:14:20;;;;;;;2.65;1.40;;;12.10;86.40;;;;;;6280211;22;20448;-79
2024/02/14 00:16:45;;;;;;;2.92;1.55;;;12.10;86.40;;;;;;6280044;22;20011;-78
2024/02/14 00:19:11;;;;;;;2.72;1.52;;;12.10;86.50;;;;;;6280127;22;20010;-79
2024/02/14 00:21:38;;;;;;;2.63;1.48;;;12.10;86.50;;;;;;6307243;22;20329;-77
2024/02/14 00:24:04;;;;;;;2.25;1.33;;;12.00;86.00;;;;;;6279928;22;20082;-80
2024/02/14 00:26:30;;;;;;;2.50;1.40;;;12.10;86.50;;;;;;6279897;22;19995;-79
2024/02/14 00:28:55;;;;;;;2.65;1.42;;;12.10;86.50;;;;;;6279894;22;20302;-79
2024/02/14 00:31:21;;;;;;;3.38;1.73;;;12.00;86.30;;;;;;6280010;22;20048;-78
2024/02/14 00:33:46;;;;;;;2.45;1.38;;;12.10;86.60;;;;;;6279496;22;20007;-79
2024/02/14 00:36:12;;;;;;;2.88;1.55;;;12.00;86.60;;;;;;6279920;22;20044;-79
2024/02/14 00:38:37;;;;;;;2.90;1.52;;;12.00;85.80;;;;;;6279821;22;20321;-78
2024/02/14 00:41:03;;;;;;;3.65;1.80;;;12.10;86.10;;;;;;6307310;22;20027;-78
2024/02/14 00:43:29;;;;;;;2.40;1.40;;;12.00;86.00;;;;;;6307154;22;20426;-78
2024/02/14 00:45:56;;;;;;;2.80;1.38;;;12.00;86.40;;;;;;6280020;22;19999;-79
2024/02/14 00:48:22;;;;;;;3.50;1.60;;;12.00;86.50;;;;;;6307138;22;19991;-79
2024/02/14 00:50:48;;;;;;;3.05;1.60;;;12.00;86.00;;;;;;6279706;22;20076;-78
2024/02/14 00:53:13;;;;;;;2.03;1.48;;;12.00;86.30;;;;;;6279413;22;20010;-79
2024/02/14 00:55:39;;;;;;;3.42;1.90;;;12.00;86.00;;;;;;6279744;22;20022;-78
2024/02/14 00:58:05;;;;;;;2.80;1.48;;;12.00;86.00;;;;;;6279821;22;19995;-79
2024/02/14 01:00:31;;;;;;;2.85;1.48;;;12.00;86.00;;;;;;6306617;22;20002;-81
2024/02/14 01:02:57;;;;;;;3.00;1.50;;;11.90;86.20;;;;;;6279311;22;20003;-78
2024/02/14 01:05:23;;;;;;;3.17;1.60;;;12.10;86.40;;;;;;6279868;22;19999;-79
2024/02/14 01:07:49;;;;;;;3.47;1.50;;;12.00;86.40;;;;;;6279262;22;20083;-79
2024/02/14 01:10:14;;;;;;;3.80;1.65;;;12.00;86.50;;;;;;6307027;22;19995;-78
2024/02/14 01:12:40;;;;;;;3.35;1.50;;;12.00;86.40;;;;;;6279053;22;20318;-79
2024/02/14 01:15:06;;;;;;;2.83;1.50;;;12.00;86.50;;;;;;6279579;22;20040;-79
2024/02/14 01:17:31;;;;;;;3.10;1.50;;;12.00;86.70;;;;;;6279813;22;20018;-79
2024/02/14 01:19:58;;;;;;;2.50;1.50;;;12.00;85.80;;;;;;6279472;22;20000;-79
2024/02/14 01:22:23;;;;;;;2.60;1.52;;;12.10;86.00;;;;;;6278436;22;20061;-79
2024/02/14 01:24:49;;;;;;;2.85;1.60;;;12.10;86.50;;;;;;6279368;22;20000;-79
2024/02/14 01:27:15;;;;;;;2.90;1.55;;;12.10;87.00;;;;;;6279661;22;20159;-79
2024/02/14 01:29:41;;;;;;;3.22;1.58;;;12.00;86.50;;;;;;6280102;22;20000;-80
2024/02/14 01:32:06;;;;;;;2.10;1.50;;;12.00;86.20;;;;;;6279311;22;20002;-79
2024/02/14 01:34:32;;;;;;;3.50;1.50;;;12.00;86.00;;;;;;6306570;22;20121;-79
2024/02/14 01:36:58;;;;;;;3.40;1.52;;;12.10;86.30;;;;;;6279159;22;20011;-79
2024/02/14 01:39:23;;;;;;;3.00;1.70;;;12.00;86.30;;;;;;6279365;22;19999;-78
2024/02/14 01:41:49;;;;;;;2.92;1.60;;;12.10;86.40;;;;;;6306772;22;20057;-78
2024/02/14 01:44:15;;;;;;;2.83;1.60;;;12.00;86.40;;;;;;6279352;22;20049;-79
2024/02/14 01:46:42;;;;;;;2.28;1.35;;;12.00;86.20;;;;;;6306846;22;20078;-79
2024/02/14 01:49:08;;;;;;;2.85;1.60;;;12.10;86.60;;;;;;6279193;22;19999;-81
2024/02/14 01:51:35;;;;;;;2.55;1.50;;;12.00;86.60;;;;;;6279344;22;20136;-79
2024/02/14 01:54:02;;;;;;;3.65;1.52;;;12.00;86.50;;;;;;6278934;22;20003;-78
2024/02/14 01:56:29;;;;;;;2.58;1.40;;;12.10;86.50;;;;;;6279305;22;20098;-79
2024/02/14 01:58:56;;;;;;;3.28;1.73;;;12.00;86.60;;;;;;6279102;22;20046;-78
2024/02/14 02:01:23;;;;;;;2.95;1.40;;;12.10;86.70;;;;;;6278874;22;20094;-78
2024/02/14 02:03:49;;;;;;;2.72;1.52;;;12.00;86.50;;;;;;6279142;22;19996;-79
2024/02/14 02:06:15;;;;;;;2.70;1.60;;;12.00;86.60;;;;;;6279350;22;19999;-78
2024/02/14 02:08:43;;;;;;;3.03;1.55;;;12.00;86.70;;;;;;6279181;22;19995;-79
2024/02/14 02:11:09;;;;;;;2.17;1.42;;;12.00;86.90;;;;;;6278942;22;20010;-79
2024/02/14 02:13:34;;;;;;;3.17;1.55;;;12.10;86.90;;;;;;6279036;22;20007;-78
2024/02/14 02:16:04;;;;;;;2.97;1.60;;;12.00;86.90;;;;;;6278861;22;20038;-78
2024/02/14 02:18:30;;;;;;;3.17;1.63;;;12.00;87.00;;;;;;6279209;22;20003;-78
2024/02/14 02:20:57;;;;;;;2.97;1.80;;;12.00;87.00;;;;;;6278783;22;20015;-78
2024/02/14 02:23:22;;;;;;;3.65;1.60;;;12.00;87.00;;;;;;6278419;22;19995;-79
2024/02/14 02:25:48;;;;;;;3.67;1.70;;;12.00;87.00;;;;;;6278524;22;19991;-78
2024/02/14 02:28:14;;;;;;;2.47;1.50;;;12.00;87.00;;;;;;6278820;22;20025;-80
2024/02/14 02:30:40;;;;;;;3.67;1.63;;;12.00;87.10;;;;;;6279009;22;20003;-79
2024/02/14 02:33:07;;;;;;;3.20;1.65;;;12.00;87.10;;;;;;6278289;22;20003;-78
2024/02/14 02:35:32;;;;;;;2.53;1.48;;;12.00;87.10;;;;;;6278935;22;20015;-78
2024/02/14 02:37:58;;;;;;;2.67;1.50;;;12.00;87.10;;;;;;6279018;22;19999;-80
2024/02/14 02:40:26;;;;;;;2.60;1.42;;;12.00;86.80;;;;;;6278951;22;20090;-78
2024/02/14 02:42:52;;;;;;;2.75;1.50;;;12.00;87.10;;;;;;6278634;22;19999;-79
2024/02/14 02:45:18;;;;;;;3.10;1.50;;;12.00;87.00;;;;;;6278694;22;20090;-79
2024/02/14 02:47:44;;;;;;;2.55;1.52;;;12.00;87.00;;;;;;6278894;22;20080;-80
2024/02/14 02:50:09;;;;;;;3.10;1.50;;;12.00;87.00;;;;;;6278658;22;19998;-79
2024/02/14 02:52:35;;;;;;;2.67;1.45;;;12.00;87.00;;;;;;6278351;22;20023;-79
2024/02/14 02:55:01;;;;;;;1.92;1.27;;;12.00;87.10;;;;;;6278789;22;20474;-78
2024/02/14 02:57:28;;;;;;;3.33;1.40;;;12.00;87.10;;;;;;6305702;22;20070;-78
2024/02/14 02:59:54;;;;;;;2.97;1.60;;;12.00;87.30;;;;;;6278459;22;20053;-78
2024/02/14 03:02:19;;;;;;;2.22;1.40;;;12.00;87.10;;;;;;6277458;22;20027;-78
2024/02/14 03:04:46;;;;;;;2.83;1.42;;;12.00;87.20;;;;;;6305818;22;20010;-78
2024/02/14 03:07:12;;;;;;;2.80;1.23;;;12.00;87.10;;;;;;6278470;22;20437;-79
2024/02/14 03:09:37;;;;;;;2.38;1.45;;;12.00;87.10;;;;;;6304092;22;20002;-78
2024/02/14 03:12:03;;;;;;;3.15;1.67;;;12.00;87.10;;;;;;6304212;22;20018;-78
2024/02/14 03:14:32;;;;;;;2.88;1.50;;;12.00;87.00;;;;;;6278334;22;20026;-79
2024/02/14 03:17:02;;;;;;;3.25;1.55;;;12.00;87.10;;;;;;6278088;22;20073;-78
2024/02/14 03:19:27;;;;;;;3.15;1.45;;;12.00;87.10;;;;;;6278561;22;20031;-79
2024/02/14 03:21:54;;;;;;;2.00;1.30;;;12.00;87.20;;;;;;6278015;22;20426;-78
2024/02/14 03:24:19;;;;;;;2.88;1.35;;;12.00;87.30;;;;;;6278229;22;20007;-79
2024/02/14 03:26:45;;;;;;;2.30;1.30;;;12.00;87.30;;;;;;6278121;22;20565;-78
2024/02/14 03:29:12;;;;;;;3.22;1.40;;;12.10;87.40;;;;;;6278556;22;20010;-79
2024/02/14 03:31:37;;;;;;;2.45;1.42;;;12.00;87.30;;;;;;6278177;22;20433;-78
2024/02/14 03:34:03;;;;;;;2.83;1.40;;;12.00;87.80;;;;;;6278118;22;20025;-79
2024/02/14 03:36:30;;;;;;;2.60;1.42;;;12.00;87.40;;;;;;6278141;22;19999;-78
2024/02/14 03:38:57;;;;;;;2.72;1.58;;;12.00;87.40;;;;;;6305540;22;20487;-80
2024/02/14 03:41:22;;;;;;;2.78;1.50;;;12.00;87.40;;;;;;6278018;22;20031;-79
2024/02/14 03:43:49;;;;;;;3.35;1.60;;;12.00;87.40;;;;;;6277891;22;19998;-79
2024/02/14 03:46:15;;;;;;;2.55;1.30;;;12.00;87.30;;;;;;6280133;22;20018;-79
2024/02/14 03:48:43;;;;;;;2.88;1.35;;;12.00;87.40;;;;;;6280169;22;20082;-79
2024/02/14 03:51:09;;;;;;;1.90;1.20;;;12.00;87.50;;;;;;6280023;22;20003;-78
2024/02/14 03:53:34;;;;;;;2.30;1.38;;;12.00;87.50;;;;;;6280167;22;20018;-78
2024/02/14 03:56:00;;;;;;;3.20;1.30;;;12.00;87.50;;;;;;6280046;22;20075;-78
2024/02/14 03:58:26;;;;;;;2.58;1.40;;;12.00;87.60;;;;;;6308146;22;20003;-78
2024/02/14 04:00:52;;;;;;;2.38;1.30;;;12.00;87.50;;;;;;6279813;22;20330;-80
2024/02/14 04:03:17;;;;;;;2.80;1.33;;;12.00;87.50;;;;;;6279903;22;19995;-78
2024/02/14 04:05:43;;;;;;;3.22;1.30;;;12.00;87.60;;;;;;6307676;22;19995;-78
2024/02/14 04:08:09;;;;;;;2.13;1.33;;;12.00;87.60;;;;;;6280122;22;20000;-79
2024/02/14 04:10:36;;;;;;;2.30;1.27;;;12.00;87.60;;;;;;6280196;22;20026;-79
2024/02/14 04:13:04;;;;;;;2.20;1.30;;;11.90;87.50;;;;;;6280289;22;20003;-80
2024/02/14 04:15:29;;;;;;;2.58;1.45;;;12.00;87.60;;;;;;6280196;22;20026;-78
2024/02/14 04:17:55;;;;;;;2.58;1.30;;;12.00;87.50;;;;;;6280290;22;20456;-79
2024/02/14 04:20:20;;;;;;;1.85;1.20;;;12.00;87.50;;;;;;6280435;22;20010;-79
2024/02/14 04:22:46;;;;;;;2.55;1.30;;;12.00;87.60;;;;;;6306964;22;20003;-79
2024/02/14 04:25:12;;;;;;;2.30;1.38;;;12.00;87.60;;;;;;6280588;22;20044;-77
2024/02/14 04:27:37;;;;;;;2.58;1.38;;;12.00;87.50;;;;;;6281781;22;20033;-79
2024/02/14 04:30:04;;;;;;;2.45;1.30;;;12.00;87.50;;;;;;6280225;22;19999;-78
2024/02/14 04:32:30;;;;;;;2.05;1.30;;;12.00;87.60;;;;;;6305834;22;20331;-79
2024/02/14 04:34:56;;;;;;;2.03;1.27;;;12.00;87.70;;;;;;6281331;22;20083;-79
2024/02/14 04:37:21;;;;;;;3.08;1.30;;;12.00;87.70;;;;;;6281246;22;19999;-80
2024/02/14 04:39:47;;;;;;;2.90;1.40;;;12.00;87.60;;;;;;6280401;22;19999;-79
2024/02/14 04:42:12;;;;;;;3.00;1.40;;;11.90;87.60;;;;;;6278041;22;20000;-79
2024/02/14 04:44:39;;;;;;;2.38;1.20;;;12.00;87.70;;;;;;6277389;22;20517;-79
2024/02/14 04:47:05;;;;;;;3.08;1.40;;;12.00;87.70;;;;;;6276898;22;19999;-79
2024/02/14 04:49:30;;;;;;;2.63;1.15;;;12.00;87.70;;;;;;6275558;22;20505;-78
2024/02/14 04:51:57;;;;;;;2.10;1.30;;;12.00;87.70;;;;;;6276176;22;20010;-79
2024/02/14 04:54:22;;;;;;;2.55;1.35;;;12.00;87.60;;;;;;6278822;22;20003;-79
2024/02/14 04:56:48;;;;;;;1.92;1.25;;;12.00;87.60;;;;;;6304325;22;20030;-79
2024/02/14 04:59:13;;;;;;;2.42;1.48;;;12.00;87.70;;;;;;6276890;22;20453;-79
2024/02/14 05:01:39;;;;;;;2.10;1.35;;;12.00;87.70;;;;;;6279059;22;19999;-79
2024/02/14 05:04:06;;;;;;;2.42;1.40;;;12.00;88.20;;;;;;6278834;22;20080;-79
2024/02/14 05:06:32;;;;;;;3.83;1.58;;;12.00;87.70;;;;;;6281473;22;20003;-79
2024/02/14 05:08:58;;;;;;;2.45;1.40;;;12.00;87.70;;;;;;6281896;22;20437;-79
2024/02/14 05:11:23;;;;;;;2.22;1.30;;;12.00;87.70;;;;;;6282257;22;20432;-78
2024/02/14 05:13:49;;;;;;;3.40;1.63;;;12.00;87.80;;;;;;6279807;22;20086;-79
2024/02/14 05:16:18;;;;;;;2.78;1.30;;;12.00;87.80;;;;;;6303547;22;20505;-78
2024/02/14 05:18:44;;;;;;;3.50;1.45;;;12.00;87.80;;;;;;6275557;22;20503;-79
2024/02/14 05:21:09;;;;;;;1.90;1.27;;;12.00;87.80;;;;;;6274014;22;20457;-81
2024/02/14 05:23:38;;;;;;;2.33;1.20;;;12.00;87.80;;;;;;6301321;22;20014;-79
2024/02/14 05:26:04;;;;;;;2.28;1.40;;;12.00;87.80;;;;;;6273690;22;20010;-78
2024/02/14 05:28:30;;;;;;;2.53;1.30;;;12.00;87.80;;;;;;6274666;22;20345;-78
2024/02/14 05:31:00;;;;;;;2.38;1.30;;;12.00;87.80;;;;;;6274556;22;20015;-78
2024/02/14 05:33:26;;;;;;;1.92;1.20;;;12.00;87.90;;;;;;6300821;22;20007;-78
2024/02/14 05:35:52;;;;;;;2.80;1.50;;;12.00;87.90;;;;;;6273605;22;20014;-78
2024/02/14 05:38:20;;;;;;;2.58;1.50;;;12.00;87.90;;;;;;6273624;22;20007;-77
2024/02/14 05:40:46;;;;;;;2.47;1.40;;;12.00;87.90;;;;;;6272469;22;20007;-79
2024/02/14 05:43:12;;;;;;;2.78;1.33;;;11.90;87.90;;;;;;6301287;22;20052;-78
2024/02/14 05:45:38;;;;;;;2.70;1.45;;;12.00;88.00;;;;;;6272791;22;20089;-78
2024/02/14 05:48:03;;;;;;;2.47;1.25;;;12.00;87.90;;;;;;6272708;22;20007;-78
2024/02/14 05:50:29;;;;;;;2.30;1.20;;;12.00;87.90;;;;;;6274409;22;20004;-78
2024/02/14 05:52:57;;;;;;;2.03;1.13;;;12.00;88.00;;;;;;6274756;22;20011;-78
2024/02/14 05:55:22;;;;;;;2.55;1.38;;;12.00;87.90;;;;;;6274862;22;20078;-78
2024/02/14 05:57:48;;;;;;;1.90;1.25;;;11.90;87.90;;;;;;6273555;22;20487;-78
2024/02/14 06:00:14;;;;;;;1.60;1.05;;;12.00;88.00;;;;;;6273627;22;20082;-78
2024/02/14 06:02:40;;;;;;;2.42;1.35;;;12.00;88.00;;;;;;6273371;22;20006;-78
2024/02/14 06:05:09;;;;;;;1.67;1.10;;;12.00;88.00;;;;;;6273327;22;20003;-77
2024/02/14 06:07:36;;;;;;;2.13;1.25;;;12.00;88.00;;;;;;6273783;22;19995;-78
2024/02/14 06:10:01;;;;;;;2.30;1.20;;;12.00;88.10;;;;;;6273798;22;20003;-79
2024/02/14 06:12:27;;;;;;;2.30;1.15;;;12.00;88.10;;;;;;6273707;22;20759;-77
2024/02/14 06:14:52;;;;;;;2.40;1.30;;;11.90;88.10;;;;;;6273856;22;20384;-78
2024/02/14 06:17:18;;;;;;;2.00;1.25;;;12.00;88.20;;;;;;6273459;22;20015;-79
2024/02/14 06:19:43;;;;;;;2.70;1.58;;;12.00;88.20;;;;;;6273784;22;20316;-79
2024/02/14 06:22:10;;;;;;;2.28;1.38;;;12.00;88.10;;;;;;6274200;22;20011;-78
2024/02/14 06:24:36;;;;;;;2.40;1.35;;;12.00;88.20;;;;;;6273821;22;20011;-78
2024/02/14 06:27:01;;;;;;;2.13;1.30;;;12.00;88.20;;;;;;6274331;22;20460;-77
2024/02/14 06:29:27;;;;;;;2.80;1.48;;;12.00;88.20;;;;;;6274276;22;20459;-78
2024/02/14 06:31:52;;;;;;;2.25;1.23;;;12.00;88.20;;;;;;6274354;22;20151;-78
2024/02/14 06:34:19;;;;;;;2.70;1.27;;;11.90;88.20;;;;;;6274320;22;20091;-78
2024/02/14 06:36:46;;;;;;;2.20;1.40;;;12.00;88.20;;;;;;6273487;22;20010;-78
2024/02/14 06:39:11;;;;;;;1.90;1.23;;;12.00;88.30;;;;;;6273521;22;20073;-80
2024/02/14 06:41:37;;;;;;;2.58;1.40;;;12.00;88.30;;;;;;6300687;22;20442;-78
2024/02/14 06:44:04;;;;;;;1.92;1.20;;;11.90;88.20;;;;;;6300477;22;20427;-78
2024/02/14 06:46:29;;;;;;;1.75;1.17;;;11.90;88.20;;;;;;6274018;22;20007;-79
2024/02/14 06:48:55;;;;;;;2.33;1.50;;;12.00;88.30;;;;;;6274285;22;20445;-78
2024/02/14 06:51:21;;;;;;;2.22;1.35;;;11.90;88.30;;;;;;6300543;22;20520;-78
2024/02/14 06:53:47;;;;;;;1.63;1.23;;;11.90;88.30;;;;;;6273250;22;20034;-79
2024/02/14 06:56:12;;;;;;;2.85;1.35;;;11.90;88.30;;;;;;6273592;22;20011;-79
2024/02/14 06:58:38;;;;;;;2.28;1.50;;;11.90;88.30;;;;;;6273268;22;20030;-78
2024/02/14 07:01:03;;;;;;;1.88;1.40;;;12.00;88.30;;;;;;6273767;22;20004;-80
2024/02/14 07:03:29;;;;;;;2.78;1.50;;;12.00;88.40;;;;;;6300277;22;20002;-78
2024/02/14 07:05:54;;;;;;;2.78;1.48;;;12.00;88.40;;;;;;6274214;22;19999;-79
2024/02/14 07:08:20;;;;;;;2.10;1.30;;;12.00;88.40;;;;;;6275392;22;20497;-79
2024/02/14 07:10:45;;;;;;;2.30;1.48;;;12.00;88.40;;;;;;6273843;22;20011;-79
2024/02/14 07:13:11;;;;;;;2.53;1.25;;;12.00;88.40;;;;;;6273110;22;20334;-79
2024/02/14 07:15:36;;;;;;;2.00;1.40;;;12.00;88.40;;;;;;6273676;22;20017;-78
2024/02/14 07:18:03;;;;;;;2.97;1.75;;;11.90;88.40;;;;;;6273802;22;20011;-79
2024/02/14 07:20:30;;;;;;;2.30;1.45;;;11.90;88.40;;;;;;6273786;22;20517;-79
2024/02/14 07:22:56;;;;;;;2.33;1.45;;;12.00;88.50;;;;;;6272988;22;20053;-79
2024/02/14 07:25:22;;;;;;;2.03;1.40;;;12.00;88.50;;;;;;6273789;22;19995;-79
2024/02/14 07:27:49;;;;;;;2.45;1.40;;;12.00;88.50;;;;;;6274021;22;20091;-79
2024/02/14 07:30:18;;;;;;;2.58;1.40;;;11.90;88.50;;;;;;6274269;22;20455;-79
2024/02/14 07:32:44;;;;;;;2.65;1.40;;;11.90;88.50;;;;;;6273972;22;19999;-78
2024/02/14 07:35:10;;;;;;;1.88;1.42;;;11.90;88.40;;;;;;6273820;22;20038;-79
2024/02/14 07:37:36;;;;;;;2.70;1.52;;;11.90;88.50;;;;;;6273328;22;20008;-78
2024/02/14 07:40:02;;;;;;;1.75;1.30;;;11.90;88.50;;;;;;6275855;22;19999;-79
2024/02/14 07:42:27;;;;;;;2.45;1.50;;;11.90;88.50;;;;;;6301053;22;20076;-79
2024/02/14 07:44:53;;;;;;;2.13;1.45;;;11.90;88.50;;;;;;6277473;22;20431;-79
2024/02/14 07:47:19;;;;;;;1.98;1.40;;;12.00;88.60;;;;;;6284152;22;20022;-80
2024/02/14 07:49:44;;;;;;;2.42;1.58;;;12.00;88.60;;;;;;6279700;22;20587;-78
2024/02/14 07:52:10;;;;;;;2.30;1.50;;;12.00;88.60;;;;;;6283067;22;19999;-79
2024/02/14 07:54:36;;;;;;;2.13;1.42;;;12.00;88.50;;;;;;6276967;22;20076;-79
2024/02/14 07:57:01;;;;;;;2.40;1.55;;;12.00;88.60;;;;;;6285284;22;20003;-79
2024/02/14 07:59:27;;;;;;;2.22;1.60;;;12.00;88.60;;;;;;6276019;22;20368;-80
2024/02/14 08:01:52;;;;;;;2.25;1.40;;;12.00;88.60;;;;;;6276532;22;20007;-80
2024/02/14 08:04:18;;;;;;;2.35;1.52;;;12.00;88.50;;;;;;6277511;22;20039;-79
2024/02/14 08:06:49;;;;;;;2.15;1.50;;;12.00;88.60;;;;;;6276426;22;20094;-79
2024/02/14 08:09:14;;;;;;;2.58;1.92;;;12.00;88.60;;;;;;6275755;22;19995;-78
2024/02/14 08:11:40;;;;;;;2.63;1.70;;;12.00;88.60;;;;;;6277244;22;20007;-78
2024/02/14 08:14:05;;;;;;;2.80;1.70;;;12.00;88.60;;;;;;6275010;22;20143;-79
2024/02/14 08:16:31;;;;;;;2.25;1.60;;;11.90;88.60;;;;;;6273817;22;20007;-80
2024/02/14 08:18:58;;;;;;;2.70;1.67;;;11.90;88.50;;;;;;6288998;22;20015;-80
2024/02/14 08:21:25;;;;;;;2.97;1.73;;;12.00;89.10;;;;;;6284077;22;20073;-79
2024/02/14 08:23:55;;;;;;;2.90;1.80;;;12.00;88.60;;;;;;6272741;22;20013;-79
2024/02/14 08:26:24;;;;;;;2.67;1.70;;;12.00;88.60;;;;;;6288562;22;20079;-79
2024/02/14 08:28:49;;;;;;;2.67;1.50;;;12.00;88.60;;;;;;6282030;22;20012;-79
2024/02/14 08:31:15;;;;;;;2.92;1.92;;;11.80;88.50;;;;;;6292227;22;20058;-80
2024/02/14 08:33:41;;;;;;;2.90;1.77;;;11.90;88.60;;;;;;6301930;22;20010;-80
2024/02/14 08:36:07;;;;;;;2.65;1.75;;;12.00;88.60;;;;;;6299823;22;20015;-80
2024/02/14 08:38:34;;;;;;;2.20;1.60;;;12.00;88.60;;;;;;6299361;22;20526;-80
2024/02/14 08:41:00;;;;;;;2.63;1.70;;;12.00;88.60;;;;;;6318687;22;20437;-79
2024/02/14 08:43:28;;;;;;;3.38;1.80;;;12.00;88.60;;;;;;6286645;22;20438;-79
2024/02/14 08:45:54;;;;;;;3.22;1.83;;;12.00;88.70;;;;;;6284510;22;20004;-79
2024/02/14 08:48:19;;;;;;;3.33;2.08;;;12.00;88.70;;;;;;6284907;22;20034;-79
2024/02/14 08:50:45;;;;;;;3.38;1.80;;;11.90;88.60;;;;;;6289900;22;20003;-80
2024/02/14 08:53:44;;;;;;;2.55;1.70;;;12.00;88.70;;;;;;6280094;22;20061;-80
2024/02/14 08:56:10;;;;;;;2.93;1.90;;;12.00;88.70;;;;;;6323633;22;20046;-79
2024/02/14 08:58:52;;;;;;;2.90;1.90;;;12.00;88.70;;;;;;6324970;22;20017;-81
2024/02/14 09:01:17;;;;;;;3.65;1.90;;;11.90;88.60;;;;;;6296314;22;20075;-79
2024/02/14 09:03:47;;;;;;;3.30;2.00;;;12.00;88.70;;;;;;6329657;22;20003;-80
2024/02/14 09:06:17;;;;;;;3.75;1.80;;;12.00;88.70;;;;;;6281570;22;20010;-79
2024/02/14 09:08:43;;;;;;;3.33;2.00;;;12.00;88.60;;;;;;6306821;22;20052;-81
2024/02/14 09:11:09;;;;;;;3.22;2.10;;;12.00;88.70;;;;;;6279763;22;20018;-80
2024/02/14 09:13:35;;;;;;;3.42;2.13;;;12.00;88.70;;;;;;6279974;22;19999;-79
2024/02/14 09:16:00;;;;;;;3.30;2.00;;;11.90;88.70;;;;;;6279411;22;20011;-79
2024/02/14 09:18:27;;;;;;;2.80;1.80;;;12.00;88.70;;;;;;6279233;22;20026;-79
2024/02/14 09:20:52;;;;;;;2.97;1.80;;;12.00;88.70;;;;;;6283259;22;20015;-80
2024/02/14 09:23:22;;;;;;;3.25;1.90;;;11.90;88.70;;;;;;6284136;22;20004;-79
2024/02/14 09:25:51;;;;;;;2.47;1.80;;;11.90;88.70;;;;;;6323166;22;19983;-80
2024/02/14 09:28:16;;;;;;;3.00;1.80;;;12.00;88.70;;;;;;6333442;22;19994;-80
2024/02/14 09:34:25;;;;;;;3.38;1.90;;;12.00;88.70;;;;;;6177427;23;20021;-80
2024/02/14 09:36:53;;;;;;;2.42;1.95;;;12.10;88.80;;;;;;6150767;23;20056;-79
2024/02/14 09:40:26;;;;;;;2.53;1.90;;;12.00;88.80;;;;;;6182550;23;20038;-79
2024/02/14 09:43:22;;;;;;;7.10;2.38;;;12.00;88.80;;;;;;6165974;23;20018;-80
2024/02/14 09:45:52;;;;;;;8.95;2.50;;;12.00;88.80;;;;;;6203255;22;20052;-80
2024/02/14 09:48:47;;;;;;;8.85;2.85;;;12.00;88.80;;;;;;6162258;22;20017;-80
2024/02/14 09:52:04;;;;;;;13.75;3.28;;;12.00;88.90;;;;;;6122038;23;19994;-80
2024/02/14 09:55:16;;;;;;;10.98;2.65;;;11.90;88.70;;;;;;6189467;22;19989;-81
2024/02/14 10:01:36;;;;;;;16.85;3.03;;;12.00;88.80;;;;;;6243014;22;20012;-80
2024/02/14 10:04:05;;;;;;;17.17;4.07;;;11.80;88.80;;;;;;6192998;23;20004;-80
2024/02/14 10:06:31;;;;;;;40.05;4.55;;;12.00;88.90;;;;;;6215682;22;20076;-79
2024/02/14 10:08:57;;;;;;;28.13;4.03;;;12.00;89.10;;;;;;6242240;22;20008;-79
2024/02/14 10:11:54;;;;;;;29.13;4.43;;;12.00;89.50;;;;;;6216691;22;20023;-80
2024/02/14 10:14:30;;;;;;;27.77;4.28;;;12.00;89.60;;;;;;6241315;22;20009;-80
2024/02/14 10:17:24;;;;;;;19.15;4.15;;;12.00;89.60;;;;;;6242330;22;20069;-80
2024/02/14 10:19:58;;;;;;;23.63;4.15;;;12.00;89.50;;;;;;6221175;22;20008;-79
2024/02/14 10:22:25;;;;;;;21.05;4.43;;;12.00;89.50;;;;;;6308910;22;20010;-80
2024/02/14 10:25:18;;;;;;;18.88;4.13;;;11.90;89.30;;;;;;6307872;22;20068;-80
2024/02/14 10:28:18;;;;;;;31.50;5.05;;;12.00;89.30;;;;;;6325405;22;20007;-80
2024/02/14 10:30:51;;;;;;;96.80;10.63;;;11.90;89.20;;;;;;6309019;22;19992;-80
2024/02/14 10:33:17;;;;;;;125.45;11.57;;;11.90;89.20;;;;;;6284153;22;20011;-79
2024/02/14 10:36:07;;;;;;;225.55;18.10;;;12.00;89.20;;;;;;6334819;22;20003;-80
2024/02/14 10:38:33;;;;;;;313.10;24.53;;;12.00;89.30;;;;;;6285770;22;20007;-80
2024/02/14 10:41:07;;;;;;;380.08;31.10;;;12.00;89.30;;;;;;6306138;22;20008;-80
2024/02/14 10:43:33;;;;;;;362.95;29.92;;;11.90;89.20;;;;;;6302894;22;20058;-80
2024/02/14 10:46:08;;;;;;;444.35;37.40;;;12.30;89.50;;;;;;6305889;22;20014;-81
2024/02/14 10:48:38;;;;;;;434.63;36.72;;;10.90;88.80;;;;;;6273666;22;20007;-81
2024/02/14 10:51:06;;;;;;;482.15;41.75;;;11.90;89.40;;;;;;6295640;22;20003;-80
2024/02/14 10:53:34;;;;;;;463.77;40.85;;;11.90;89.30;;;;;;6302535;22;20003;-80
2024/02/14 10:56:00;;;;;;;383.30;35.42;;;12.00;89.30;;;;;;6303356;22;20049;-79
2024/02/14 10:58:29;;;;;;;440.25;37.30;;;12.00;89.50;;;;;;6299421;22;20025;-79
2024/02/14 11:00:55;;;;;;;373.73;34.00;;;12.00;89.50;;;;;;6289362;22;20098;-81
2024/02/14 11:03:22;;;;;;;390.05;34.28;;;12.00;89.40;;;;;;6291097;22;20003;-81
2024/02/14 11:05:49;;;;;;;373.55;32.00;;;12.00;89.30;;;;;;6289138;22;20000;-79
2024/02/14 11:08:22;;;;;;;381.23;32.20;;;12.00;89.30;;;;;;6310320;22;19999;-79
2024/02/14 11:10:59;;;;;;;351.92;32.83;;;12.00;89.20;;;;;;6280337;22;20029;-79
2024/02/14 11:13:30;;;;;;;329.55;30.58;;;12.00;89.20;;;;;;6286163;22;20018;-80
2024/02/14 11:15:57;;;;;;;;;;;12.00;89.20;;;;;;6300800;22;20003;-79
2024/02/14 11:18:38;;;;;;;282.40;27.05;;;12.00;89.10;;;;;;6304257;22;19903;-79
2024/02/14 11:21:18;;;;;;;265.20;28.27;;;12.00;89.10;;;;;;6329185;22;20003;-80
2024/02/14 11:23:54;;;;;;;253.60;26.40;;;12.00;89.00;;;;;;6303085;22;20038;-80
2024/02/14 11:26:19;;;;;;;273.88;26.38;;;12.00;89.00;;;;;;6307307;22;20003;-80
2024/02/14 11:28:48;;;;;;;236.77;26.10;;;12.00;89.10;;;;;;6326196;22;20404;-79
2024/02/14 11:31:17;;;;;;;233.98;25.00;;;12.10;89.10;;;;;;6305375;22;20441;-79
2024/02/14 11:33:45;;;;;;;219.52;23.98;;;12.10;89.10;;;;;;6330816;22;20004;-80
2024/02/14 11:36:13;;;;;;;217.02;23.92;;;12.00;89.00;;;;;;6300232;22;20033;-80
2024/02/14 11:38:47;;;;;;;204.35;23.90;;;12.00;89.00;;;;;;6300026;22;20007;-79
2024/02/14 11:41:13;;;;;;;213.52;23.60;;;12.10;89.10;;;;;;6317279;22;20011;-79
2024/02/14 11:43:39;;;;;;;204.82;20.70;;;12.00;89.00;;;;;;6325738;22;20019;-80
2024/02/14 11:46:24;;;;;;;206.13;22.85;;;12.00;89.00;;;;;;6330940;22;19995;-81
2024/02/14 11:48:53;;;;;;;190.02;21.98;;;12.10;89.00;;;;;;6307519;22;20011;-79
2024/02/14 11:51:41;;;;;;;189.38;20.75;;;12.00;89.00;;;;;;6309199;22;19999;-80
2024/02/14 11:54:07;;;;;;;165.48;21.10;;;12.00;89.00;;;;;;6332553;22;20003;-79
2024/02/14 11:56:40;;;;;;;159.80;18.33;;;12.00;88.90;;;;;;6293652;22;20026;-79
2024/02/14 11:59:07;;;;;;;154.43;18.58;;;13.10;89.50;;;;;;6320143;22;20042;-79
2024/02/14 12:01:37;;;;;;;180.02;20.40;;;12.00;88.90;;;;;;6295092;22;20038;-80
2024/02/14 12:04:08;;;;;;;132.75;18.35;;;12.00;88.90;;;;;;6290192;22;20068;-80
2024/02/14 12:06:35;;;;;;;124.63;19.30;;;12.00;88.90;;;;;;6324066;22;20055;-79
2024/02/14 12:09:05;;;;;;;132.88;17.27;;;12.70;89.30;;;;;;6304632;22;20035;-79
2024/02/14 12:11:37;;;;;;;119.07;16.70;;;12.00;88.90;;;;;;6331171;22;20027;-79
2024/02/14 12:14:03;;;;;;;107.95;15.98;;;11.90;88.80;;;;;;6305935;22;20034;-80
2024/02/14 12:16:29;;;;;;;125.93;16.50;;;12.00;88.90;;;;;;6329383;22;19999;-81
2024/02/14 12:19:09;;;;;;;118.10;15.50;;;12.00;88.90;;;;;;6302422;22;19987;-79
2024/02/14 12:21:40;;;;;;;113.13;15.40;;;12.00;88.90;;;;;;6321986;22;20043;-80
2024/02/14 13:00:34;;;;;;;63.20;10.98;;;12.10;88.60;;;;;;6335556;22;20059;-80
2024/02/14 13:06:25;;;;;;;63.13;10.95;;;12.10;88.60;;;;;;6307680;22;20095;-81
2024/02/14 13:40:22;;;;;;;42.25;8.48;;;12.10;88.60;;;;;;6336907;22;20010;-80
2024/02/14 13:48:10;;;;;;;38.28;8.40;;;12.10;88.60;;;;;;6327693;22;19999;-81
2024/02/14 13:50:37;;;;;;;37.58;7.70;;;12.20;88.70;;;;;;6335422;22;19985;-79
2024/02/14 13:53:30;;;;;;;36.08;7.60;;;12.10;88.60;;;;;;6283378;22;20022;-81
2024/02/14 13:56:09;;;;;;;34.95;7.78;;;12.00;88.60;;;;;;6057815;22;15064632;-80
2024/02/14 13:58:54;;;;;;;38.47;7.78;;;12.20;88.70;;;;;;6314871;22;20237;-79
2024/02/14 14:01:52;;;;;;;45.88;8.18;;;12.10;88.60;;;;;;6332073;22;19999;-82
2024/02/14 14:04:20;;;;;;;33.78;6.85;;;12.10;89.20;;;;;;6301061;22;20018;-80
2024/02/14 14:07:05;;;;;;;35.10;8.13;;;12.10;88.60;;;;;;6308632;22;19992;-80
2024/02/14 14:09:32;;;;;;;27.88;6.75;;;12.10;88.60;;;;;;6305835;22;19996;-80
2024/02/14 14:12:05;;;;;;;33.97;7.22;;;12.10;88.60;;;;;;6305328;22;20014;-80